Time;durP1;ratioP1;P1;durP2;ratioP2;P2;SDS_P1;SDS_P2;PMS_P1;PMS_P2;Temp;Humidity;BMP_temperature;BMP_pressure;BME280_temperature;BME280_humidity;BME280_pressure;Samples;Min_cycle;Max_cycle;Signal;HPM_P1;HPM_P2
2022/01/29 00:02:24;;;;;;;59.75;35.17;;;7.40;99.90;;;;;;6301168;22;20007;-76
2022/01/29 00:04:50;;;;;;;53.05;33.17;;;7.40;99.90;;;;;;6300769;22;20100;-75
2022/01/29 00:07:16;;;;;;;54.70;31.13;;;7.40;99.90;;;;;;6301938;22;20007;-75
2022/01/29 00:09:43;;;;;;;54.25;36.60;;;7.50;99.90;;;;;;6275232;22;20034;-75
2022/01/29 00:12:10;;;;;;;58.45;35.60;;;7.40;99.90;;;;;;6301670;22;20431;-75
2022/01/29 00:14:36;;;;;;;53.53;36.90;;;7.30;99.90;;;;;;6301569;22;20301;-75
2022/01/29 00:17:02;;;;;;;60.63;36.13;;;7.40;99.90;;;;;;6301100;22;20082;-75
2022/01/29 00:19:27;;;;;;;63.92;37.67;;;7.40;99.90;;;;;;6302554;22;20052;-75
2022/01/29 00:21:53;;;;;;;56.67;35.75;;;7.30;99.90;;;;;;6303448;22;20343;-75
2022/01/29 00:24:19;;;;;;;58.22;35.38;;;7.40;99.90;;;;;;6303342;22;20014;-75
2022/01/29 00:26:44;;;;;;;54.58;35.40;;;7.40;99.90;;;;;;6303640;22;20050;-75
2022/01/29 00:29:18;;;;;;;59.33;38.20;;;7.40;99.90;;;;;;6302725;22;20039;-75
2022/01/29 00:31:43;;;;;;;59.53;38.53;;;7.30;99.90;;;;;;6303003;22;20374;-75
2022/01/29 00:34:09;;;;;;;65.78;36.50;;;7.30;99.90;;;;;;6302535;22;20022;-74
2022/01/29 00:36:35;;;;;;;60.28;40.17;;;7.30;99.90;;;;;;6303279;22;20011;-75
2022/01/29 00:39:00;;;;;;;60.25;38.47;;;7.20;99.90;;;;;;6302177;22;20022;-75
2022/01/29 00:41:26;;;;;;;63.05;39.42;;;7.20;99.90;;;;;;6303083;22;20015;-75
2022/01/29 00:43:52;;;;;;;69.50;41.42;;;7.30;99.90;;;;;;6302745;22;20011;-75
2022/01/29 00:46:17;;;;;;;69.18;41.63;;;7.20;99.90;;;;;;6302966;22;20019;-75
2022/01/29 00:48:43;;;;;;;61.90;39.47;;;7.20;99.90;;;;;;6303185;22;20081;-75
2022/01/29 00:51:08;;;;;;;65.53;39.95;;;7.20;99.90;;;;;;6303183;22;20015;-75
2022/01/29 00:53:34;;;;;;;69.63;41.22;;;7.10;99.90;;;;;;6277064;22;20542;-75
2022/01/29 00:56:05;;;;;;;74.97;45.35;;;7.20;99.90;;;;;;6303818;22;20320;-75
2022/01/29 00:58:31;;;;;;;65.93;43.65;;;7.10;99.90;;;;;;6302320;22;20015;-75
2022/01/29 01:00:56;;;;;;;65.07;41.17;;;7.10;99.90;;;;;;6302038;22;20719;-75
2022/01/29 01:03:22;;;;;;;77.60;45.08;;;7.10;99.90;;;;;;6303140;22;20447;-75
2022/01/29 01:05:48;;;;;;;70.68;42.45;;;7.10;99.90;;;;;;6303019;22;20532;-75
2022/01/29 01:08:13;;;;;;;75.60;43.90;;;7.10;99.90;;;;;;6302664;22;20007;-75
2022/01/29 01:10:39;;;;;;;69.63;43.45;;;7.10;99.90;;;;;;6276481;22;20496;-75
2022/01/29 01:13:05;;;;;;;68.82;42.33;;;7.10;99.90;;;;;;6302960;22;20065;-75
2022/01/29 01:15:31;;;;;;;71.18;44.33;;;7.20;99.90;;;;;;6302982;22;20490;-75
2022/01/29 01:17:56;;;;;;;77.35;42.30;;;7.10;99.90;;;;;;6302696;22;20050;-75
2022/01/29 01:20:22;;;;;;;72.22;43.78;;;7.10;99.90;;;;;;6301518;22;20530;-75
2022/01/29 01:22:48;;;;;;;75.38;44.03;;;7.10;99.90;;;;;;6303165;22;20046;-75
2022/01/29 01:25:13;;;;;;;69.47;44.13;;;7.10;99.90;;;;;;6302433;22;20558;-75
2022/01/29 01:27:39;;;;;;;78.72;46.97;;;7.10;99.90;;;;;;6303241;22;20464;-75
2022/01/29 01:30:05;;;;;;;69.90;43.35;;;7.00;99.90;;;;;;6302157;22;20385;-75
2022/01/29 01:32:31;;;;;;;71.13;47.38;;;7.10;99.90;;;;;;6276811;22;20019;-75
2022/01/29 01:35:07;;;;;;;75.93;44.10;;;7.10;99.90;;;;;;6302688;22;20007;-75
2022/01/29 01:37:44;;;;;;;75.63;43.35;;;7.10;99.90;;;;;;6303039;22;20050;-75
2022/01/29 01:40:10;;;;;;;67.80;42.05;;;7.10;99.90;;;;;;6302981;22;20038;-75
2022/01/29 01:42:36;;;;;;;80.57;43.47;;;7.10;99.90;;;;;;6301912;22;20090;-75
2022/01/29 01:45:02;;;;;;;68.15;41.70;;;7.10;99.90;;;;;;6277036;22;20070;-75
2022/01/29 01:47:28;;;;;;;79.18;45.65;;;7.10;99.90;;;;;;6302866;22;20053;-75
2022/01/29 01:49:53;;;;;;;79.43;49.53;;;7.10;99.90;;;;;;6276319;22;20011;-75
2022/01/29 01:52:19;;;;;;;76.90;42.97;;;7.10;99.90;;;;;;6302613;22;20065;-75
2022/01/29 01:54:45;;;;;;;76.63;45.55;;;7.10;99.90;;;;;;6276800;22;20332;-75
2022/01/29 01:57:11;;;;;;;77.72;46.97;;;7.10;99.90;;;;;;6302457;22;20033;-75
2022/01/29 01:59:37;;;;;;;72.30;42.67;;;7.10;99.90;;;;;;6301366;22;20064;-75
2022/01/29 02:02:03;;;;;;;86.40;50.13;;;7.10;99.90;;;;;;6302154;22;20444;-75
2022/01/29 02:04:30;;;;;;;87.22;49.30;;;7.10;99.90;;;;;;6302542;22;20011;-75
2022/01/29 02:06:56;;;;;;;80.97;45.58;;;7.10;99.90;;;;;;6302336;22;20094;-75
2022/01/29 02:09:24;;;;;;;82.55;49.60;;;7.10;99.90;;;;;;6276600;22;20061;-75
2022/01/29 02:11:52;;;;;;;80.95;46.67;;;7.20;99.90;;;;;;6302054;22;20011;-75
2022/01/29 02:14:19;;;;;;;77.97;47.00;;;7.10;99.90;;;;;;6302356;22;20062;-75
2022/01/29 02:16:45;;;;;;;82.22;47.03;;;7.10;99.90;;;;;;6302191;22;20014;-75
2022/01/29 02:19:11;;;;;;;81.80;46.08;;;7.20;99.90;;;;;;6275862;22;20011;-75
2022/01/29 02:21:37;;;;;;;76.45;44.70;;;7.20;99.90;;;;;;6302440;22;20066;-75
2022/01/29 02:24:03;;;;;;;84.50;43.63;;;7.20;99.90;;;;;;6276554;22;20009;-75
2022/01/29 02:26:29;;;;;;;80.70;45.55;;;7.20;99.90;;;;;;6300434;22;20008;-75
2022/01/29 02:28:55;;;;;;;81.93;45.35;;;7.20;99.90;;;;;;6300458;22;20007;-75
2022/01/29 02:31:21;;;;;;;81.05;43.28;;;7.20;99.90;;;;;;6302277;22;20098;-75
2022/01/29 02:33:47;;;;;;;88.03;47.95;;;7.30;99.90;;;;;;6302204;22;20047;-75
2022/01/29 02:36:13;;;;;;;86.38;44.58;;;7.30;99.90;;;;;;6276729;22;20022;-75
2022/01/29 02:38:38;;;;;;;92.47;48.33;;;7.30;99.90;;;;;;6302278;22;20018;-75
2022/01/29 02:41:06;;;;;;;83.90;45.75;;;7.30;99.90;;;;;;6301829;22;20099;-75
2022/01/29 02:43:37;;;;;;;87.45;47.17;;;7.30;99.90;;;;;;6300952;22;20022;-76
2022/01/29 02:46:29;;;;;;;82.53;45.42;;;7.30;99.90;;;;;;6302131;22;20007;-75
2022/01/29 02:48:53;;;;;;;82.68;41.80;;;7.30;99.90;;;;;;6301268;22;20038;-75
2022/01/29 02:51:19;;;;;;;79.13;43.20;;;7.30;99.90;;;;;;6301328;22;20069;-75
2022/01/29 02:53:47;;;;;;;84.80;41.17;;;7.40;99.90;;;;;;6301221;22;20022;-75
2022/01/29 02:56:13;;;;;;;87.30;47.70;;;7.40;99.90;;;;;;6301689;22;20051;-75
2022/01/29 02:58:39;;;;;;;82.97;40.42;;;7.50;99.90;;;;;;6300330;22;20011;-75
2022/01/29 03:01:06;;;;;;;82.07;41.03;;;7.50;99.90;;;;;;6275549;22;20011;-75
2022/01/29 03:03:32;;;;;;;84.43;44.95;;;7.40;99.90;;;;;;6302276;22;20100;-75
2022/01/29 03:05:58;;;;;;;87.63;42.17;;;7.40;99.90;;;;;;6276546;22;20023;-75
2022/01/29 03:08:23;;;;;;;80.53;42.63;;;7.50;99.90;;;;;;6301298;22;20081;-75
2022/01/29 03:10:49;;;;;;;73.55;38.10;;;7.50;99.90;;;;;;6249980;22;20019;-75
2022/01/29 03:13:16;;;;;;;81.03;41.00;;;7.50;99.90;;;;;;6275624;22;20019;-75
2022/01/29 03:15:42;;;;;;;78.85;43.78;;;7.60;99.90;;;;;;6275724;22;20018;-75
2022/01/29 03:18:08;;;;;;;84.65;41.10;;;7.70;99.90;;;;;;6301555;22;20015;-75
2022/01/29 03:20:34;;;;;;;80.18;42.83;;;7.70;99.90;;;;;;6300811;22;20007;-75
2022/01/29 03:22:59;;;;;;;76.65;38.65;;;7.70;99.90;;;;;;6301598;22;20019;-75
2022/01/29 03:25:26;;;;;;;81.65;40.25;;;7.70;99.90;;;;;;6302541;22;20007;-75
2022/01/29 03:27:51;;;;;;;82.03;40.08;;;7.70;99.90;;;;;;6300562;22;20011;-75
2022/01/29 03:30:17;;;;;;;72.50;38.92;;;7.70;99.90;;;;;;6301210;22;20015;-75
2022/01/29 03:32:43;;;;;;;75.93;39.05;;;7.80;99.90;;;;;;6300671;22;20076;-75
2022/01/29 03:35:10;;;;;;;68.30;36.03;;;7.80;99.90;;;;;;6301770;22;20015;-75
2022/01/29 03:37:36;;;;;;;68.57;37.78;;;7.80;99.90;;;;;;6301894;22;20086;-75
2022/01/29 03:40:05;;;;;;;73.70;37.17;;;7.80;99.90;;;;;;6301257;22;20092;-75
2022/01/29 03:42:35;;;;;;;69.20;36.00;;;7.90;99.90;;;;;;6300955;22;20064;-75
2022/01/29 03:45:00;;;;;;;67.93;36.22;;;7.90;99.90;;;;;;6299012;22;20092;-75
2022/01/29 03:47:26;;;;;;;66.15;35.78;;;7.90;99.90;;;;;;6298962;22;20459;-75
2022/01/29 03:49:52;;;;;;;62.85;34.42;;;8.00;99.90;;;;;;6298620;22;20014;-75
2022/01/29 03:52:17;;;;;;;70.68;34.28;;;8.00;99.90;;;;;;6298142;22;20027;-75
2022/01/29 03:54:43;;;;;;;62.42;32.53;;;8.10;99.90;;;;;;6299332;22;20011;-75
2022/01/29 03:57:09;;;;;;;66.57;33.00;;;8.10;99.90;;;;;;6298661;22;20007;-75
2022/01/29 03:59:35;;;;;;;67.57;33.42;;;8.10;99.90;;;;;;6298275;22;20094;-75
2022/01/29 04:02:01;;;;;;;57.90;29.63;;;8.10;99.90;;;;;;6298621;22;20015;-75
2022/01/29 04:04:26;;;;;;;55.38;30.55;;;8.20;99.90;;;;;;6275959;22;20011;-75
2022/01/29 04:06:52;;;;;;;62.70;30.58;;;8.20;99.90;;;;;;6275503;22;20085;-75
2022/01/29 04:09:19;;;;;;;57.00;29.67;;;8.20;99.90;;;;;;6301106;22;20015;-75
2022/01/29 04:11:45;;;;;;;58.33;31.35;;;8.30;99.90;;;;;;6301520;22;20390;-75
2022/01/29 04:14:18;;;;;;;55.70;28.35;;;8.20;99.90;;;;;;6300675;22;20023;-75
2022/01/29 04:16:45;;;;;;;55.83;28.30;;;8.20;99.90;;;;;;6301964;22;20016;-75
2022/01/29 04:19:11;;;;;;;54.78;28.20;;;8.30;99.90;;;;;;6300916;22;20012;-75
2022/01/29 04:21:37;;;;;;;55.28;30.83;;;8.30;99.90;;;;;;6275982;22;20015;-75
2022/01/29 04:24:04;;;;;;;56.33;29.08;;;8.40;99.90;;;;;;6301103;22;20011;-75
2022/01/29 04:26:34;;;;;;;57.47;30.40;;;8.40;99.90;;;;;;6300622;22;20023;-75
2022/01/29 04:29:02;;;;;;;54.17;28.58;;;8.30;99.90;;;;;;6273701;22;20019;-75
2022/01/29 04:31:36;;;;;;;48.47;30.40;;;8.30;99.90;;;;;;6300984;22;20024;-75
2022/01/29 04:34:02;;;;;;;51.90;29.27;;;8.40;99.90;;;;;;6301053;22;20015;-75
2022/01/29 04:36:28;;;;;;;48.35;28.38;;;8.40;99.90;;;;;;6301054;22;20026;-75
2022/01/29 04:38:53;;;;;;;45.85;26.63;;;8.40;99.90;;;;;;6300755;22;20007;-75
2022/01/29 04:41:21;;;;;;;51.75;28.98;;;8.50;99.90;;;;;;6300631;22;20072;-75
2022/01/29 04:43:48;;;;;;;46.53;26.75;;;8.40;99.90;;;;;;6300158;22;20015;-75
2022/01/29 04:46:14;;;;;;;46.85;28.42;;;8.40;99.90;;;;;;6301671;22;20038;-75
2022/01/29 04:48:39;;;;;;;50.58;28.50;;;8.40;99.90;;;;;;6301054;22;20011;-75
2022/01/29 04:51:05;;;;;;;45.63;26.63;;;8.40;99.90;;;;;;6301184;22;20023;-75
2022/01/29 04:53:31;;;;;;;41.85;27.35;;;8.50;99.90;;;;;;6301404;22;20011;-75
2022/01/29 04:55:56;;;;;;;52.05;27.88;;;8.50;99.90;;;;;;6301449;22;20054;-75
2022/01/29 04:58:22;;;;;;;43.58;25.83;;;8.50;99.90;;;;;;6300872;22;20085;-75
2022/01/29 05:00:48;;;;;;;44.85;25.83;;;8.50;99.90;;;;;;6274675;22;20084;-75
2022/01/29 05:03:16;;;;;;;50.75;25.23;;;8.50;99.90;;;;;;6275308;22;20012;-75
2022/01/29 05:05:42;;;;;;;45.95;24.83;;;8.60;99.90;;;;;;6301645;22;20347;-75
2022/01/29 05:08:08;;;;;;;45.53;24.95;;;8.60;99.90;;;;;;6302302;22;20022;-75
2022/01/29 05:10:35;;;;;;;42.83;26.20;;;8.60;99.90;;;;;;6302229;22;20007;-75
2022/01/29 05:13:09;;;;;;;41.55;25.92;;;8.60;99.90;;;;;;6302401;22;20011;-75
2022/01/29 05:15:48;;;;;;;46.90;24.73;;;8.60;99.90;;;;;;6303171;22;20011;-75
2022/01/29 05:29:11;;;;;;;47.47;26.13;;;8.60;99.90;;;;;;6302256;22;20011;-75
2022/01/29 05:31:37;;;;;;;43.08;25.50;;;8.70;99.90;;;;;;6302485;22;20038;-75
2022/01/29 05:34:04;;;;;;;46.15;26.45;;;8.60;99.90;;;;;;6302059;22;20011;-75
2022/01/29 05:36:30;;;;;;;45.20;25.67;;;8.70;99.90;;;;;;6302265;22;20060;-75
2022/01/29 05:38:56;;;;;;;43.42;25.40;;;8.60;99.90;;;;;;6302350;22;20033;-75
2022/01/29 05:41:22;;;;;;;49.10;25.33;;;8.60;99.90;;;;;;6302404;22;20029;-75
2022/01/29 05:43:49;;;;;;;38.92;24.10;;;8.70;99.90;;;;;;6302525;22;20436;-75
2022/01/29 05:46:16;;;;;;;39.95;23.88;;;8.60;99.90;;;;;;6303146;22;20003;-75
2022/01/29 05:48:42;;;;;;;42.63;24.42;;;8.60;99.90;;;;;;6302154;22;20018;-75
2022/01/29 05:51:08;;;;;;;38.70;23.80;;;8.70;99.90;;;;;;6302625;22;20351;-75
2022/01/29 05:53:34;;;;;;;37.42;23.15;;;8.70;99.90;;;;;;6299994;22;20026;-75
2022/01/29 05:56:00;;;;;;;43.72;24.77;;;8.70;99.90;;;;;;6276799;22;20463;-75
2022/01/29 05:58:26;;;;;;;39.03;24.05;;;8.80;99.90;;;;;;6302173;22;20474;-75
2022/01/29 06:00:52;;;;;;;47.03;22.55;;;8.80;99.90;;;;;;6300739;22;20497;-75
2022/01/29 06:03:17;;;;;;;41.08;23.50;;;8.70;99.90;;;;;;6302194;22;20360;-75
2022/01/29 06:05:43;;;;;;;41.90;23.77;;;8.70;99.90;;;;;;6302329;22;20754;-75
2022/01/29 06:08:09;;;;;;;39.35;22.75;;;8.80;99.90;;;;;;6302348;22;20528;-75
2022/01/29 06:10:35;;;;;;;35.13;22.88;;;8.80;99.90;;;;;;6301550;22;20015;-75
2022/01/29 06:13:03;;;;;;;35.58;23.33;;;8.70;99.90;;;;;;6301971;22;20038;-76
2022/01/29 06:15:31;;;;;;;37.97;21.98;;;8.70;99.90;;;;;;6302447;22;20046;-75
2022/01/29 06:17:58;;;;;;;35.85;22.70;;;8.70;99.90;;;;;;6302529;22;20015;-75
2022/01/29 06:20:24;;;;;;;37.08;21.33;;;8.70;99.90;;;;;;6302408;22;20011;-75
2022/01/29 06:22:50;;;;;;;38.70;20.40;;;8.80;99.90;;;;;;6302433;22;20086;-75
2022/01/29 06:25:16;;;;;;;32.33;20.42;;;8.80;99.90;;;;;;6302083;22;20065;-75
2022/01/29 06:27:41;;;;;;;33.72;20.95;;;8.80;99.90;;;;;;6277099;22;20092;-75
2022/01/29 06:30:07;;;;;;;38.03;20.45;;;8.80;99.90;;;;;;6302240;22;20035;-75
2022/01/29 06:32:33;;;;;;;32.90;18.15;;;8.80;99.90;;;;;;6302043;22;20455;-75
2022/01/29 06:34:58;;;;;;;29.42;17.55;;;8.80;99.90;;;;;;6301925;22;20017;-75
2022/01/29 06:37:24;;;;;;;28.95;17.20;;;8.80;99.90;;;;;;6276173;22;20015;-75
2022/01/29 06:39:50;;;;;;;24.77;16.52;;;8.90;99.90;;;;;;6275634;22;20019;-75
2022/01/29 06:42:16;;;;;;;27.33;17.08;;;9.00;99.90;;;;;;6276927;22;20558;-75
2022/01/29 06:44:41;;;;;;;29.08;15.07;;;8.90;99.90;;;;;;6276249;22;20082;-75
2022/01/29 06:47:07;;;;;;;25.13;14.90;;;9.00;99.90;;;;;;6302488;22;20015;-75
2022/01/29 06:49:33;;;;;;;27.45;15.20;;;9.00;99.90;;;;;;6301803;22;20011;-75
2022/01/29 06:51:58;;;;;;;23.08;15.43;;;9.00;99.90;;;;;;6301974;22;20012;-75
2022/01/29 06:54:24;;;;;;;26.13;14.45;;;9.00;99.90;;;;;;6276295;22;20034;-75
2022/01/29 06:56:50;;;;;;;26.15;14.60;;;9.00;99.90;;;;;;6302603;22;20442;-75
2022/01/29 06:59:15;;;;;;;24.52;14.45;;;9.10;99.90;;;;;;6302323;22;20012;-75
2022/01/29 07:01:41;;;;;;;21.00;13.38;;;9.10;99.90;;;;;;6302058;22;20012;-75
2022/01/29 07:04:06;;;;;;;25.15;13.65;;;9.10;99.90;;;;;;6276411;22;20146;-75
2022/01/29 07:06:32;;;;;;;23.23;13.63;;;9.10;99.90;;;;;;6302170;22;20011;-75
2022/01/29 07:08:58;;;;;;;25.75;13.60;;;9.10;99.90;;;;;;6275677;22;20038;-75
2022/01/29 07:11:25;;;;;;;20.83;13.07;;;9.10;99.90;;;;;;6302483;22;20015;-75
2022/01/29 07:14:00;;;;;;;24.67;13.65;;;9.20;99.90;;;;;;6302591;22;20082;-75
2022/01/29 07:16:27;;;;;;;22.60;13.20;;;9.10;99.90;;;;;;6302490;22;20015;-75
2022/01/29 07:18:52;;;;;;;20.58;13.50;;;9.10;99.90;;;;;;6301262;22;20382;-75
2022/01/29 07:21:18;;;;;;;24.30;13.95;;;9.10;99.90;;;;;;6302386;22;20065;-75
2022/01/29 07:23:44;;;;;;;23.88;14.32;;;9.10;99.90;;;;;;6302195;22;20025;-75
2022/01/29 07:26:10;;;;;;;21.63;14.10;;;9.10;99.90;;;;;;6301559;22;20017;-75
2022/01/29 07:28:35;;;;;;;26.88;14.90;;;9.20;99.90;;;;;;6275904;22;20015;-75
2022/01/29 07:31:02;;;;;;;25.75;13.80;;;9.10;99.90;;;;;;6276130;22;20015;-75
2022/01/29 07:33:28;;;;;;;24.88;14.50;;;9.10;99.90;;;;;;6301467;22;20044;-75
2022/01/29 07:35:55;;;;;;;23.08;13.73;;;9.10;99.90;;;;;;6301249;22;20012;-75
2022/01/29 07:38:20;;;;;;;22.45;14.65;;;9.10;99.90;;;;;;6302224;22;20011;-75
2022/01/29 07:40:46;;;;;;;24.73;14.32;;;9.10;99.90;;;;;;6301596;22;20064;-75
2022/01/29 07:43:12;;;;;;;22.48;14.10;;;9.10;99.90;;;;;;6299755;22;20023;-75
2022/01/29 07:45:37;;;;;;;27.58;14.35;;;9.10;99.90;;;;;;6301311;22;20019;-75
2022/01/29 07:48:03;;;;;;;26.23;14.98;;;9.10;99.90;;;;;;6301308;22;20015;-75
2022/01/29 07:50:29;;;;;;;27.98;15.57;;;9.10;99.90;;;;;;6300818;22;20014;-75
2022/01/29 07:52:57;;;;;;;27.27;15.55;;;9.10;99.90;;;;;;6301348;22;20094;-75
2022/01/29 07:55:23;;;;;;;27.25;15.80;;;9.10;99.90;;;;;;6301377;22;20022;-75
2022/01/29 07:57:50;;;;;;;28.25;15.88;;;9.00;99.90;;;;;;6302210;22;20114;-74
2022/01/29 08:00:15;;;;;;;26.42;15.88;;;9.00;99.90;;;;;;6274873;22;20018;-75
2022/01/29 08:02:41;;;;;;;24.23;16.40;;;9.10;99.90;;;;;;6301328;22;20039;-75
2022/01/29 08:05:08;;;;;;;28.27;16.17;;;9.10;99.90;;;;;;6302596;22;20011;-75
2022/01/29 08:07:33;;;;;;;29.75;17.45;;;9.10;99.90;;;;;;6301308;22;20014;-75
2022/01/29 08:09:59;;;;;;;26.95;16.38;;;9.00;99.90;;;;;;6302044;22;20439;-74
2022/01/29 08:12:24;;;;;;;40.40;17.38;;;9.10;99.90;;;;;;6301156;22;20065;-76
2022/01/29 08:14:50;;;;;;;30.08;17.17;;;9.10;99.90;;;;;;6300928;22;20051;-76
2022/01/29 08:17:16;;;;;;;25.15;15.20;;;9.00;99.90;;;;;;6302622;22;20102;-76
2022/01/29 08:19:41;;;;;;;23.77;14.85;;;9.10;99.90;;;;;;6303051;22;20068;-76
2022/01/29 08:22:07;;;;;;;21.60;13.70;;;9.10;99.90;;;;;;6277105;22;20015;-76
2022/01/29 08:24:32;;;;;;;29.60;14.13;;;9.10;99.90;;;;;;6303846;22;20043;-76
2022/01/29 08:26:58;;;;;;;24.80;13.35;;;9.20;99.90;;;;;;6303279;22;20042;-76
2022/01/29 08:29:23;;;;;;;22.38;12.63;;;9.20;99.90;;;;;;6301569;22;20011;-76
2022/01/29 08:31:49;;;;;;;24.88;11.88;;;9.20;99.90;;;;;;6302727;22;20019;-76
2022/01/29 08:34:15;;;;;;;18.42;11.43;;;9.20;99.90;;;;;;6303737;22;20019;-76
2022/01/29 08:36:40;;;;;;;19.05;10.68;;;9.30;99.90;;;;;;6303847;22;20011;-76
2022/01/29 08:39:06;;;;;;;20.17;10.68;;;9.30;99.90;;;;;;6303636;22;20114;-76
2022/01/29 08:44:41;;;;;;;17.52;9.80;;;9.30;99.90;;;;;;6333436;22;20023;-76
2022/01/29 08:47:54;;;;;;;;;;;;;;;;;;;;;
2022/01/29 08:58:17;;;;;;;19.40;9.25;;;9.40;99.90;;;;;;6219578;22;20040;-76
2022/01/29 09:02:16;;;;;;;13.75;8.45;;;9.50;99.90;;;;;;6066492;23;20106;-76
2022/01/29 09:04:42;;;;;;;18.00;8.20;;;9.50;99.90;;;;;;6071909;23;20533;-76
2022/01/29 09:07:09;;;;;;;14.93;8.55;;;9.60;99.90;;;;;;6144665;23;20017;-76
2022/01/29 09:09:36;;;;;;;15.27;8.05;;;9.60;99.90;;;;;;6277510;22;20011;-76
2022/01/29 09:12:02;;;;;;;15.65;7.82;;;9.60;99.90;;;;;;6305151;22;20086;-76
2022/01/29 09:14:28;;;;;;;20.70;8.73;;;9.70;99.90;;;;;;6305211;22;20007;-76
2022/01/29 09:16:53;;;;;;;18.02;8.07;;;9.70;99.90;;;;;;6305370;22;20137;-76
2022/01/29 09:19:19;;;;;;;19.65;8.45;;;9.70;99.90;;;;;;6305011;22;20011;-76
2022/01/29 09:21:45;;;;;;;15.48;8.13;;;9.70;99.90;;;;;;6305493;22;20015;-76
2022/01/29 09:24:11;;;;;;;15.88;7.80;;;9.70;99.90;;;;;;6279512;22;20329;-76
2022/01/29 09:26:37;;;;;;;13.73;8.20;;;9.70;99.90;;;;;;6305219;22;20015;-76
2022/01/29 09:29:03;;;;;;;14.57;8.07;;;9.70;99.90;;;;;;6304638;22;20080;-75
2022/01/29 09:31:29;;;;;;;13.15;7.30;;;9.70;99.90;;;;;;6253908;22;20019;-75
2022/01/29 09:33:57;;;;;;;16.70;7.53;;;9.80;99.90;;;;;;6305091;22;20026;-75
2022/01/29 09:36:23;;;;;;;14.15;6.95;;;9.80;99.90;;;;;;6305040;22;20011;-75
2022/01/29 09:38:48;;;;;;;18.00;7.78;;;9.80;99.90;;;;;;6278815;22;20034;-75
2022/01/29 09:41:18;;;;;;;16.38;8.10;;;9.90;99.90;;;;;;6303698;22;20015;-75
2022/01/29 09:43:46;;;;;;;17.20;7.63;;;9.90;99.90;;;;;;6304972;22;20014;-75
2022/01/29 09:46:13;;;;;;;14.32;7.35;;;9.90;99.90;;;;;;6305017;22;20018;-76
2022/01/29 09:48:39;;;;;;;15.40;6.95;;;9.90;99.90;;;;;;6302051;22;20132;-76
2022/01/29 09:51:08;;;;;;;16.27;7.00;;;9.90;99.90;;;;;;6302165;22;20014;-76
2022/01/29 09:53:33;;;;;;;12.13;7.18;;;10.00;99.90;;;;;;6303942;22;20030;-76
2022/01/29 09:55:59;;;;;;;13.98;6.07;;;10.00;99.90;;;;;;6302275;22;20393;-76
2022/01/29 09:58:25;;;;;;;13.63;6.00;;;10.00;99.90;;;;;;6302279;22;20086;-76
2022/01/29 10:00:51;;;;;;;12.18;5.97;;;10.00;99.90;;;;;;6301624;22;20034;-76
2022/01/29 10:03:19;;;;;;;13.35;5.78;;;10.00;99.90;;;;;;6302772;22;20430;-76
2022/01/29 10:05:47;;;;;;;13.57;5.63;;;10.10;99.90;;;;;;6301897;22;20113;-76
2022/01/29 10:08:14;;;;;;;11.18;5.43;;;10.10;99.90;;;;;;6301627;22;20008;-76
2022/01/29 10:10:51;;;;;;;11.60;5.32;;;10.10;99.90;;;;;;6302195;22;20015;-76
2022/01/29 10:13:28;;;;;;;15.30;5.57;;;10.10;99.90;;;;;;6302828;22;20114;-76
2022/01/29 10:16:15;;;;;;;11.30;4.85;;;10.20;99.90;;;;;;6301597;22;20011;-76
2022/01/29 10:18:45;;;;;;;13.05;5.38;;;10.20;99.90;;;;;;6302062;22;20015;-76
2022/01/29 10:21:23;;;;;;;12.32;5.20;;;10.20;99.90;;;;;;6302486;22;20077;-76
2022/01/29 10:24:05;;;;;;;13.40;4.65;;;10.20;99.90;;;;;;6302652;22;20107;-76
2022/01/29 10:26:33;;;;;;;12.67;4.40;;;10.20;99.90;;;;;;6276074;22;20037;-76
2022/01/29 10:28:59;;;;;;;14.38;4.75;;;10.20;99.90;;;;;;6301182;22;20767;-76
2022/01/29 10:31:37;;;;;;;10.05;3.92;;;10.20;99.90;;;;;;6301746;22;20073;-76
2022/01/29 10:34:17;;;;;;;12.70;4.15;;;10.20;99.90;;;;;;6301275;22;20077;-76
2022/01/29 10:36:43;;;;;;;10.50;3.90;;;10.30;99.90;;;;;;6302551;22;20026;-76
2022/01/29 10:39:09;;;;;;;10.43;3.97;;;10.40;99.90;;;;;;6302780;22;20019;-76
2022/01/29 10:41:34;;;;;;;10.23;3.75;;;10.40;99.90;;;;;;6302861;22;20085;-76
2022/01/29 10:44:16;;;;;;;11.48;4.05;;;10.40;99.90;;;;;;6302410;22;20102;-76
2022/01/29 10:46:46;;;;;;;11.23;4.22;;;10.40;99.90;;;;;;6301416;22;20386;-76
2022/01/29 10:49:30;;;;;;;7.95;3.13;;;10.40;99.90;;;;;;6300509;22;20025;-75
2022/01/29 10:52:02;;;;;;;10.50;4.40;;;10.50;99.90;;;;;;6301519;22;20014;-75
2022/01/29 10:54:29;;;;;;;15.25;4.80;;;10.50;99.90;;;;;;6301573;22;20474;-75
2022/01/29 10:57:05;;;;;;;13.23;4.50;;;10.60;99.90;;;;;;6304025;22;20098;-75
2022/01/29 10:59:45;;;;;;;11.10;4.13;;;10.60;99.90;;;;;;6304210;22;20455;-75
2022/01/29 11:02:12;;;;;;;14.13;5.63;;;10.60;99.90;;;;;;6278321;22;20455;-75
2022/01/29 11:04:39;;;;;;;14.15;5.50;;;10.50;99.90;;;;;;6275480;22;20352;-75
2022/01/29 11:07:12;;;;;;;14.50;5.97;;;10.60;99.90;;;;;;6301002;22;20617;-75
2022/01/29 11:09:39;;;;;;;;;;;10.60;99.90;;;;;;6301733;22;20466;-75
2022/01/29 11:12:06;;;;;;;17.60;5.95;;;10.70;99.90;;;;;;6301849;22;19922;-75
2022/01/29 11:14:33;;;;;;;12.63;5.45;;;10.70;99.90;;;;;;6299431;22;20039;-75
2022/01/29 11:16:59;;;;;;;13.10;4.63;;;10.70;99.90;;;;;;6299627;22;20050;-75
2022/01/29 11:19:25;;;;;;;10.63;4.05;;;10.70;99.90;;;;;;6299327;22;20011;-75
2022/01/29 11:21:54;;;;;;;10.95;4.05;;;10.80;99.90;;;;;;6301004;22;20090;-75
2022/01/29 11:24:22;;;;;;;13.07;3.15;;;10.80;99.90;;;;;;6302599;22;20324;-75
2022/01/29 11:26:49;;;;;;;10.57;3.28;;;10.80;99.90;;;;;;6302427;22;20015;-75
2022/01/29 11:29:35;;;;;;;13.73;3.53;;;10.80;99.90;;;;;;6302018;22;20056;-75
2022/01/29 11:32:35;;;;;;;9.73;3.10;;;10.80;99.90;;;;;;6303125;22;20011;-75
2022/01/29 11:35:08;;;;;;;9.75;3.40;;;10.80;99.90;;;;;;6252507;22;20090;-75
2022/01/29 11:37:58;;;;;;;9.05;3.53;;;10.80;99.90;;;;;;6302181;22;20090;-75
2022/01/29 11:40:28;;;;;;;8.70;3.17;;;10.80;99.90;;;;;;6301250;22;20519;-75
2022/01/29 11:43:14;;;;;;;8.43;3.05;;;10.80;99.90;;;;;;6302346;22;20047;-75
2022/01/29 11:45:48;;;;;;;10.73;3.38;;;10.80;99.90;;;;;;6302440;22;20065;-75
2022/01/29 11:50:53;;;;;;;10.27;3.13;;;10.80;99.90;;;;;;6301933;22;20011;-75
2022/01/29 11:53:19;;;;;;;9.43;2.70;;;10.80;99.90;;;;;;6302435;22;20019;-75
2022/01/29 11:55:50;;;;;;;8.77;2.95;;;10.90;99.90;;;;;;6302119;22;20019;-75
2022/01/29 11:58:18;;;;;;;12.30;3.13;;;10.90;99.90;;;;;;6301629;22;20096;-75
2022/01/29 12:00:58;;;;;;;11.07;2.63;;;10.90;99.90;;;;;;6301633;22;20011;-75
2022/01/29 12:03:36;;;;;;;7.47;2.47;;;10.90;99.90;;;;;;6302115;22;20011;-75
2022/01/29 12:06:13;;;;;;;8.45;2.30;;;11.00;99.90;;;;;;6276969;22;20051;-75
2022/01/29 12:08:57;;;;;;;9.07;2.60;;;11.00;99.90;;;;;;6301569;22;20013;-75
2022/01/29 12:11:25;;;;;;;12.15;2.70;;;11.10;99.90;;;;;;6301881;22;20015;-75
2022/01/29 12:14:13;;;;;;;9.93;3.30;;;11.00;99.90;;;;;;6301745;22;20042;-75
2022/01/29 12:16:48;;;;;;;12.88;3.20;;;11.00;99.90;;;;;;6303696;22;20015;-75
2022/01/29 12:19:33;;;;;;;12.25;2.50;;;11.00;99.90;;;;;;6304068;22;20011;-75
2022/01/29 12:21:59;;;;;;;7.38;2.17;;;11.00;99.90;;;;;;6278909;22;20343;-75
2022/01/29 12:24:25;;;;;;;10.30;2.70;;;11.00;99.90;;;;;;6304287;22;20459;-75
2022/01/29 12:26:57;;;;;;;9.77;2.63;;;11.00;99.90;;;;;;6304619;22;20057;-75
2022/01/29 12:29:23;;;;;;;9.45;2.53;;;10.90;99.90;;;;;;6302810;22;20011;-75
2022/01/29 12:31:50;;;;;;;8.52;2.50;;;11.00;99.90;;;;;;6304358;22;20026;-75
2022/01/29 12:34:16;;;;;;;10.38;3.45;;;11.00;99.90;;;;;;6304513;22;20015;-75
2022/01/29 12:36:42;;;;;;;7.43;2.50;;;11.00;99.90;;;;;;6304498;22;20011;-75
2022/01/29 12:39:09;;;;;;;8.20;2.30;;;10.90;99.90;;;;;;6278596;22;20015;-75
2022/01/29 12:41:39;;;;;;;8.07;2.33;;;11.00;99.90;;;;;;6304203;22;20003;-75
2022/01/29 12:44:08;;;;;;;11.30;2.28;;;10.90;99.90;;;;;;6279248;22;20015;-75
2022/01/29 12:46:35;;;;;;;9.77;3.53;;;10.90;99.90;;;;;;6303780;22;20007;-75
2022/01/29 12:49:11;;;;;;;12.63;2.25;;;10.90;99.90;;;;;;6277385;22;20011;-75
2022/01/29 12:51:57;;;;;;;8.95;2.45;;;10.90;99.90;;;;;;6303447;22;20021;-75
2022/01/29 12:54:25;;;;;;;6.95;2.10;;;10.80;99.90;;;;;;6303894;22;20016;-75
2022/01/29 12:56:51;;;;;;;9.20;2.60;;;10.90;99.90;;;;;;6303672;22;20007;-75
2022/01/29 12:59:18;;;;;;;10.90;2.40;;;10.90;99.90;;;;;;6278203;22;20115;-75
2022/01/29 13:01:45;;;;;;;9.20;2.53;;;10.80;99.90;;;;;;6303490;22;20098;-76
2022/01/29 13:04:16;;;;;;;9.57;2.40;;;10.80;99.90;;;;;;6303563;22;20019;-76
2022/01/29 13:06:42;;;;;;;10.55;2.40;;;10.80;99.90;;;;;;6303121;22;20090;-76
2022/01/29 13:09:18;;;;;;;9.95;3.03;;;10.80;99.90;;;;;;6303144;22;20008;-76
2022/01/29 13:11:45;;;;;;;8.77;2.30;;;10.80;99.90;;;;;;6303568;22;20102;-74